Starling — 9V3666 — position and weather

sailwx.info

Track history (hours):
 
Tides and Currents Weather Stations Pressure Air Temp Water Temp Dewpoint Dewpoint Depression Visibility Wind Speed Wind Dir Waves Ship Positions

Starling

Last reported at 2018-Jun-20 21:08 UTC. Time now 2018-Jun-21 03:01 UTC.
Position S 34°13' E 151°27'.

Length 228 m; draft 11.4 m.

Type: Ship. MMSI: 563445000.

Date/timePositionNaut miles runAvg speedWind from/ knotsBaromVisibWave heightAir tempDewpointWater temp
2018-Jun-20 21:08S 34°13' E 151°27'0 0.9
2018-Jun-20 20:53S 34°13' E 151°28'0 0.7
2018-Jun-20 20:30S 34°13' E 151°28'0 0.7
2018-Jun-20 20:00S 34°12' E 151°28'0 0.7
2018-Jun-20 19:30S 34°12' E 151°28'0 0.6
2018-Jun-20 19:00S 34°12' E 151°29'0 0.7
2018-Jun-20 18:30S 34°12' E 151°29'0 0.7
2018-Jun-20 18:00S 34°11' E 151°29'0 0.7
2018-Jun-20 17:30S 34°11' E 151°29'0 0.5
2018-Jun-20 17:00S 34°11' E 151°30'0 0.4
2018-Jun-20 16:30S 34°11' E 151°30'0 0.5
2018-Jun-20 16:00S 34°10' E 151°30'0 0.5
2018-Jun-20 15:30S 34°10' E 151°30'0 0.3
2018-Jun-20 15:00S 34°10' E 151°30'0 0.4
2018-Jun-20 14:30S 34°10' E 151°29'0 0.6
2018-Jun-20 14:00S 34°10' E 151°29'0 0.6
2018-Jun-20 13:31S 34°10' E 151°29'0 0.4
2018-Jun-20 13:00S 34°10' E 151°28'0 0.5
2018-Jun-20 12:30S 34°10' E 151°28'0 0.6
2018-Jun-20 12:00S 34°10' E 151°28'0 0.7
2018-Jun-20 11:31S 34°10' E 151°28'0 0.5
2018-Jun-20 11:00S 34°10' E 151°28'0 0.5
2018-Jun-20 10:30S 34°11' E 151°28'0 0.5
2018-Jun-20 10:00S 34°11' E 151°28'0 0.8
2018-Jun-20 09:30S 34°11' E 151°29'1 1.0
2018-Jun-20 09:00S 34°11' E 151°29'1 1.6
2018-Jun-20 08:30S 34°10' E 151°30'1 1.8
2018-Jun-20 08:00S 34°10' E 151°30'1 2.0
2018-Jun-20 07:30S 34°09' E 151°29'2 3.3
2018-Jun-20 07:00S 34°09' E 151°27'1 1.1
2018-Jun-20 06:30S 34°08' E 151°26'0 0.2
2018-Jun-20 06:00S 34°09' E 151°26'0 0.2
2018-Jun-20 05:30S 34°09' E 151°26'0 0.1
2018-Jun-20 04:55S 34°09' E 151°26'0 0.4
2018-Jun-20 04:24S 34°09' E 151°27'0 0.4
2018-Jun-20 04:00S 34°09' E 151°27'0 0.4
2018-Jun-20 03:26S 34°09' E 151°27'0 0.4
2018-Jun-20 02:54S 34°09' E 151°27'0 0.5
2018-Jun-20 02:30S 34°09' E 151°27'0 0.5
2018-Jun-20 02:00S 34°09' E 151°28'0 0.5
2018-Jun-20 01:28S 34°09' E 151°28'0 0.3
2018-Jun-20 00:53S 34°09' E 151°28'5 4.1
2018-Jun-19 23:34S 34°04' E 151°30'1 4.3
2018-Jun-19 23:26S 34°03' E 151°31'2 3.7
2018-Jun-19 23:00S 34°01' E 151°31'2 3.7
2018-Jun-19 22:30S 33°60' E 151°32'2 3.6
2018-Jun-19 22:00S 33°58' E 151°32'2 3.5
2018-Jun-19 21:30S 33°56' E 151°32'1 2.0
2018-Jun-19 21:00S 33°55' E 151°33'1 1.3
2018-Jun-19 20:30S 33°56' E 151°32'1 1.3
2018-Jun-19 20:00S 33°57' E 151°32'1 1.4
2018-Jun-19 19:30S 33°57' E 151°32'1 1.4
2018-Jun-19 19:00S 33°58' E 151°32'1 1.2
2018-Jun-19 18:30S 33°59' E 151°32'1 1.0
2018-Jun-19 18:00S 33°59' E 151°32'1 1.1
2018-Jun-19 17:30S 33°60' E 151°32'1 1.1
2018-Jun-19 17:00S 34°00' E 151°32'0 1.0
2018-Jun-19 16:30S 34°01' E 151°32'1 1.1
2018-Jun-19 16:01S 34°01' E 151°32'1 1.1
2018-Jun-19 15:30S 34°02' E 151°32'1 1.3
2018-Jun-19 15:00S 34°02' E 151°31'1 1.5
2018-Jun-19 14:30S 34°03' E 151°31'1 1.6
2018-Jun-19 14:00S 34°04' E 151°31'1 1.5
2018-Jun-19 13:30S 34°04' E 151°30'1 1.6
2018-Jun-19 13:00S 34°05' E 151°30'1 1.6
2018-Jun-19 12:30S 34°06' E 151°29'1 1.6
2018-Jun-19 12:00S 34°07' E 151°29'1 1.6
2018-Jun-19 11:30S 34°07' E 151°28'1 1.3
2018-Jun-19 11:00S 34°07' E 151°28'5 9.2
2018-Jun-19 10:30S 34°05' E 151°32'2 3.7
2018-Jun-19 10:00S 34°04' E 151°34'2 3.2
2018-Jun-19 09:30S 34°03' E 151°36'1 3.0
2018-Jun-19 09:00S 34°02' E 151°37'1 2.7
2018-Jun-19 08:30S 34°01' E 151°38'2 3.7
2018-Jun-19 08:00S 33°59' E 151°39'2 3.6
2018-Jun-19 07:30S 33°58' E 151°41'2 3.9
2018-Jun-19 07:00S 33°57' E 151°43'1 2.1
2018-Jun-19 06:20S 33°56' E 151°44'0 0.2
2018-Jun-19 06:00S 33°56' E 151°44'0 0.3
2018-Jun-19 05:29S 33°56' E 151°44'0 0.1
2018-Jun-19 05:00S 33°56' E 151°44'0 0.2
2018-Jun-19 04:30S 33°56' E 151°44'0 0.3
2018-Jun-19 04:00S 33°56' E 151°44'0 0.5
2018-Jun-19 03:30S 33°56' E 151°44'0 0.5
2018-Jun-19 03:00S 33°56' E 151°43'0 0.5
2018-Jun-19 02:30S 33°56' E 151°43'0 0.8
2018-Jun-19 02:00S 33°56' E 151°43'0 0.7
2018-Jun-19 01:30S 33°56' E 151°42'0 0.8
2018-Jun-19 00:52S 33°56' E 151°42'0 1.4
2018-Jun-19 00:30S 33°56' E 151°41'1 2.2
2018-Jun-19 00:00S 33°56' E 151°40'1 1.8
2018-Jun-18 23:30S 33°57' E 151°39'1 1.5
2018-Jun-18 23:00S 33°58' E 151°39'1 1.6
2018-Jun-18 22:30S 33°58' E 151°38'1 1.7
2018-Jun-18 22:00S 33°59' E 151°37'1 2.2
2018-Jun-18 21:30S 33°60' E 151°36'1 2.6
2018-Jun-18 21:01S 34°01' E 151°36'1 2.4
2018-Jun-18 20:30S 34°02' E 151°35'1 2.3
2018-Jun-18 20:00S 34°03' E 151°34'1 2.4
2018-Jun-18 19:30S 34°04' E 151°33'1 2.1
2018-Jun-18 19:01S 34°05' E 151°32'1 2.1
2018-Jun-18 18:30S 34°05' E 151°31'1 2.2
2018-Jun-18 18:01S 34°06' E 151°30'2 3.2
2018-Jun-18 17:31S 34°05' E 151°28'2 3.5
2018-Jun-18 17:00S 34°04' E 151°27'0 1.0
2018-Jun-18 16:30S 34°04' E 151°27'1 2.3
2018-Jun-18 16:00S 34°05' E 151°28'1 2.3
2018-Jun-18 15:30S 34°05' E 151°29'2 3.7
2018-Jun-18 15:01S 34°04' E 151°31'2 3.7
2018-Jun-18 14:30S 34°04' E 151°33'2 3.5
2018-Jun-18 14:00S 34°03' E 151°35'2 3.6
2018-Jun-18 13:30S 34°02' E 151°37'2 3.1
2018-Jun-18 13:01S 34°01' E 151°38'2 4.8
2018-Jun-18 12:31S 34°00' E 151°41'2 3.4
2018-Jun-18 12:00S 33°59' E 151°43'1 1.5
2018-Jun-18 11:31S 33°59' E 151°44'1 2.6
2018-Jun-18 11:00S 33°58' E 151°45'1 2.5
2018-Jun-18 10:30S 33°58' E 151°46'1 1.2
2018-Jun-18 09:59S 33°58' E 151°46'1 2.6
2018-Jun-18 09:30S 33°59' E 151°44'1 2.4
2018-Jun-18 09:00S 33°59' E 151°43'1 2.3
2018-Jun-18 08:31S 33°60' E 151°42'1 2.0
2018-Jun-18 08:00S 34°00' E 151°41'1 2.0
2018-Jun-18 07:30S 34°00' E 151°39'1 1.9
2018-Jun-18 07:00S 34°01' E 151°38'1 2.0
2018-Jun-18 06:30S 34°01' E 151°37'1 2.0
2018-Jun-18 06:00S 34°02' E 151°36'1 2.2
2018-Jun-18 05:29S 34°02' E 151°35'1 2.4
2018-Jun-18 05:00S 34°03' E 151°34'1 2.1
2018-Jun-18 04:31S 34°04' E 151°33'1 2.1
2018-Jun-18 04:00S 34°04' E 151°32'1 1.8
2018-Jun-18 03:30S 34°05' E 151°31'1 1.8
2018-Jun-18 03:00S 34°05' E 151°30'1 1.7
2018-Jun-18 02:30S 34°05' E 151°29'1 1.3
2018-Jun-18 01:58S 34°05' E 151°28'1 1.3
2018-Jun-18 01:28S 34°04' E 151°28'1 1.4
2018-Jun-18 01:00S 34°04' E 151°27'1 1.8
2018-Jun-18 00:30S 34°03' E 151°27'3 6.9
2018-Jun-18 00:00S 34°03' E 151°23'4 7.8
2018-Jun-17 23:30S 34°03' E 151°18'5 0.1
2018-Jun-16 05:50S 33°60' E 151°13'4 8.7
2018-Jun-16 05:24S 34°02' E 151°17'2 5.3
2018-Jun-16 05:00S 34°02' E 151°19'2 4.8
2018-Jun-16 04:31S 34°03' E 151°21'  
Track history (hours):
 
Tides and Currents Weather Stations Pressure Air Temp Water Temp Dewpoint Dewpoint Depression Visibility Wind Speed Wind Dir Waves Ship Positions

Starling

Last reported at 2018-Jun-20 21:08 UTC. Time now 2018-Jun-21 03:01 UTC.
Position S 34°13' E 151°27'.

Length 228 m; draft 11.4 m.

Type: Ship. MMSI: 563445000.

Date/timePositionNaut miles runAvg speedWind from/ knotsBaromVisibWave heightAir tempDewpointWater temp
2018-Jun-20 21:08S 34°13' E 151°27'0 0.9
2018-Jun-20 20:53S 34°13' E 151°28'0 0.7
2018-Jun-20 20:30S 34°13' E 151°28'0 0.7
2018-Jun-20 20:00S 34°12' E 151°28'0 0.7
2018-Jun-20 19:30S 34°12' E 151°28'0 0.6
2018-Jun-20 19:00S 34°12' E 151°29'0 0.7
2018-Jun-20 18:30S 34°12' E 151°29'0 0.7
2018-Jun-20 18:00S 34°11' E 151°29'0 0.7
2018-Jun-20 17:30S 34°11' E 151°29'0 0.5
2018-Jun-20 17:00S 34°11' E 151°30'0 0.4
2018-Jun-20 16:30S 34°11' E 151°30'0 0.5
2018-Jun-20 16:00S 34°10' E 151°30'0 0.5
2018-Jun-20 15:30S 34°10' E 151°30'0 0.3
2018-Jun-20 15:00S 34°10' E 151°30'0 0.4
2018-Jun-20 14:30S 34°10' E 151°29'0 0.6
2018-Jun-20 14:00S 34°10' E 151°29'0 0.6
2018-Jun-20 13:31S 34°10' E 151°29'0 0.4
2018-Jun-20 13:00S 34°10' E 151°28'0 0.5
2018-Jun-20 12:30S 34°10' E 151°28'0 0.6
2018-Jun-20 12:00S 34°10' E 151°28'0 0.7
2018-Jun-20 11:31S 34°10' E 151°28'0 0.5
2018-Jun-20 11:00S 34°10' E 151°28'0 0.5
2018-Jun-20 10:30S 34°11' E 151°28'0 0.5
2018-Jun-20 10:00S 34°11' E 151°28'0 0.8
2018-Jun-20 09:30S 34°11' E 151°29'1 1.0
2018-Jun-20 09:00S 34°11' E 151°29'1 1.6
2018-Jun-20 08:30S 34°10' E 151°30'1 1.8
2018-Jun-20 08:00S 34°10' E 151°30'1 2.0
2018-Jun-20 07:30S 34°09' E 151°29'2 3.3
2018-Jun-20 07:00S 34°09' E 151°27'1 1.1
2018-Jun-20 06:30S 34°08' E 151°26'0 0.2
2018-Jun-20 06:00S 34°09' E 151°26'0 0.2
2018-Jun-20 05:30S 34°09' E 151°26'0 0.1
2018-Jun-20 04:55S 34°09' E 151°26'0 0.4
2018-Jun-20 04:24S 34°09' E 151°27'0 0.4
2018-Jun-20 04:00S 34°09' E 151°27'0 0.4
2018-Jun-20 03:26S 34°09' E 151°27'0 0.4
2018-Jun-20 02:54S 34°09' E 151°27'0 0.5
2018-Jun-20 02:30S 34°09' E 151°27'0 0.5
2018-Jun-20 02:00S 34°09' E 151°28'0 0.5
2018-Jun-20 01:28S 34°09' E 151°28'0 0.3
2018-Jun-20 00:53S 34°09' E 151°28'5 4.1
2018-Jun-19 23:34S 34°04' E 151°30'1 4.3
2018-Jun-19 23:26S 34°03' E 151°31'2 3.7
2018-Jun-19 23:00S 34°01' E 151°31'2 3.7
2018-Jun-19 22:30S 33°60' E 151°32'2 3.6
2018-Jun-19 22:00S 33°58' E 151°32'2 3.5
2018-Jun-19 21:30S 33°56' E 151°32'1 2.0
2018-Jun-19 21:00S 33°55' E 151°33'1 1.3
2018-Jun-19 20:30S 33°56' E 151°32'1 1.3
2018-Jun-19 20:00S 33°57' E 151°32'1 1.4
2018-Jun-19 19:30S 33°57' E 151°32'1 1.4
2018-Jun-19 19:00S 33°58' E 151°32'1 1.2
2018-Jun-19 18:30S 33°59' E 151°32'1 1.0
2018-Jun-19 18:00S 33°59' E 151°32'1 1.1
2018-Jun-19 17:30S 33°60' E 151°32'1 1.1
2018-Jun-19 17:00S 34°00' E 151°32'0 1.0
2018-Jun-19 16:30S 34°01' E 151°32'1 1.1
2018-Jun-19 16:01S 34°01' E 151°32'1 1.1
2018-Jun-19 15:30S 34°02' E 151°32'1 1.3
2018-Jun-19 15:00S 34°02' E 151°31'1 1.5
2018-Jun-19 14:30S 34°03' E 151°31'1 1.6
2018-Jun-19 14:00S 34°04' E 151°31'1 1.5
2018-Jun-19 13:30S 34°04' E 151°30'1 1.6
2018-Jun-19 13:00S 34°05' E 151°30'1 1.6
2018-Jun-19 12:30S 34°06' E 151°29'1 1.6
2018-Jun-19 12:00S 34°07' E 151°29'1 1.6
2018-Jun-19 11:30S 34°07' E 151°28'1 1.3
2018-Jun-19 11:00S 34°07' E 151°28'5 9.2
2018-Jun-19 10:30S 34°05' E 151°32'2 3.7
2018-Jun-19 10:00S 34°04' E 151°34'2 3.2
2018-Jun-19 09:30S 34°03' E 151°36'1 3.0
2018-Jun-19 09:00S 34°02' E 151°37'1 2.7
2018-Jun-19 08:30S 34°01' E 151°38'2 3.7
2018-Jun-19 08:00S 33°59' E 151°39'2 3.6
2018-Jun-19 07:30S 33°58' E 151°41'2 3.9
2018-Jun-19 07:00S 33°57' E 151°43'1 2.1
2018-Jun-19 06:20S 33°56' E 151°44'0 0.2
2018-Jun-19 06:00S 33°56' E 151°44'0 0.3
2018-Jun-19 05:29S 33°56' E 151°44'0 0.1
2018-Jun-19 05:00S 33°56' E 151°44'0 0.2
2018-Jun-19 04:30S 33°56' E 151°44'0 0.3
2018-Jun-19 04:00S 33°56' E 151°44'0 0.5
2018-Jun-19 03:30S 33°56' E 151°44'0 0.5
2018-Jun-19 03:00S 33°56' E 151°43'0 0.5
2018-Jun-19 02:30S 33°56' E 151°43'0 0.8
2018-Jun-19 02:00S 33°56' E 151°43'0 0.7
2018-Jun-19 01:30S 33°56' E 151°42'0 0.8
2018-Jun-19 00:52S 33°56' E 151°42'0 1.4
2018-Jun-19 00:30S 33°56' E 151°41'1 2.2
2018-Jun-19 00:00S 33°56' E 151°40'1 1.8
2018-Jun-18 23:30S 33°57' E 151°39'1 1.5
2018-Jun-18 23:00S 33°58' E 151°39'1 1.6
2018-Jun-18 22:30S 33°58' E 151°38'1 1.7
2018-Jun-18 22:00S 33°59' E 151°37'1 2.2
2018-Jun-18 21:30S 33°60' E 151°36'1 2.6
2018-Jun-18 21:01S 34°01' E 151°36'1 2.4
2018-Jun-18 20:30S 34°02' E 151°35'1 2.3
2018-Jun-18 20:00S 34°03' E 151°34'1 2.4
2018-Jun-18 19:30S 34°04' E 151°33'1 2.1
2018-Jun-18 19:01S 34°05' E 151°32'1 2.1
2018-Jun-18 18:30S 34°05' E 151°31'1 2.2
2018-Jun-18 18:01S 34°06' E 151°30'2 3.2
2018-Jun-18 17:31S 34°05' E 151°28'2 3.5
2018-Jun-18 17:00S 34°04' E 151°27'0 1.0
2018-Jun-18 16:30S 34°04' E 151°27'1 2.3
2018-Jun-18 16:00S 34°05' E 151°28'1 2.3
2018-Jun-18 15:30S 34°05' E 151°29'2 3.7
2018-Jun-18 15:01S 34°04' E 151°31'2 3.7
2018-Jun-18 14:30S 34°04' E 151°33'2 3.5
2018-Jun-18 14:00S 34°03' E 151°35'2 3.6
2018-Jun-18 13:30S 34°02' E 151°37'2 3.1
2018-Jun-18 13:01S 34°01' E 151°38'2 4.8
2018-Jun-18 12:31S 34°00' E 151°41'2 3.4
2018-Jun-18 12:00S 33°59' E 151°43'1 1.5
2018-Jun-18 11:31S 33°59' E 151°44'1 2.6
2018-Jun-18 11:00S 33°58' E 151°45'1 2.5
2018-Jun-18 10:30S 33°58' E 151°46'1 1.2
2018-Jun-18 09:59S 33°58' E 151°46'1 2.6
2018-Jun-18 09:30S 33°59' E 151°44'1 2.4
2018-Jun-18 09:00S 33°59' E 151°43'1 2.3
2018-Jun-18 08:31S 33°60' E 151°42'1 2.0
2018-Jun-18 08:00S 34°00' E 151°41'1 2.0
2018-Jun-18 07:30S 34°00' E 151°39'1 1.9
2018-Jun-18 07:00S 34°01' E 151°38'1 2.0
2018-Jun-18 06:30S 34°01' E 151°37'1 2.0
2018-Jun-18 06:00S 34°02' E 151°36'1 2.2
2018-Jun-18 05:29S 34°02' E 151°35'1 2.4
2018-Jun-18 05:00S 34°03' E 151°34'1 2.1
2018-Jun-18 04:31S 34°04' E 151°33'1 2.1
2018-Jun-18 04:00S 34°04' E 151°32'1 1.8
2018-Jun-18 03:30S 34°05' E 151°31'1 1.8
2018-Jun-18 03:00S 34°05' E 151°30'1 1.7
2018-Jun-18 02:30S 34°05' E 151°29'1 1.3
2018-Jun-18 01:58S 34°05' E 151°28'1 1.3
2018-Jun-18 01:28S 34°04' E 151°28'1 1.4
2018-Jun-18 01:00S 34°04' E 151°27'1 1.8
2018-Jun-18 00:30S 34°03' E 151°27'3 6.9
2018-Jun-18 00:00S 34°03' E 151°23'4 7.8
2018-Jun-17 23:30S 34°03' E 151°18'5 0.1
2018-Jun-16 05:50S 33°60' E 151°13'4 8.7
2018-Jun-16 05:24S 34°02' E 151°17'2 5.3
2018-Jun-16 05:00S 34°02' E 151°19'2 4.8
2018-Jun-16 04:31S 34°03' E 151°21'  

Dump ship's entire track history